createdAt,value
2019-05-02T00:02:51.441Z,10.70
2019-05-02T00:07:58.490Z,10.70
2019-05-02T00:13:03.802Z,10.90
2019-05-02T00:18:08.943Z,11.00
2019-05-02T00:23:14.548Z,11.00
2019-05-02T00:28:20.050Z,11.10
2019-05-02T00:33:29.193Z,11.00
2019-05-02T00:38:33.263Z,10.80
2019-05-02T00:43:39.044Z,10.80
2019-05-02T00:48:49.618Z,10.70
2019-05-02T00:53:55.331Z,10.60
2019-05-02T00:59:02.450Z,10.70
2019-05-02T01:04:37.941Z,10.50
2019-05-02T01:09:46.874Z,10.40
2019-05-02T01:14:51.069Z,10.10
2019-05-02T01:19:56.150Z,10.40
2019-05-02T01:25:01.061Z,10.10
2019-05-02T01:30:27.796Z,10.20
2019-05-02T01:35:55.365Z,10.40
2019-05-02T01:41:00.604Z,10.20
2019-05-02T01:46:05.777Z,10.40
2019-05-02T01:51:12.152Z,10.40
2019-05-02T01:56:17.571Z,10.30
2019-05-02T02:01:23.386Z,10.30
2019-05-02T02:06:28.890Z,10.10
2019-05-02T02:11:35.805Z,10.20
2019-05-02T02:16:41.253Z,10.20
2019-05-02T02:21:57.408Z,10.30
2019-05-02T02:26:59.602Z,10.40
2019-05-02T02:32:04.919Z,10.40
2019-05-02T02:37:13.230Z,10.40
2019-05-02T02:42:17.244Z,11.30
2019-05-02T02:47:22.858Z,10.40
2019-05-02T02:52:27.767Z,10.30
2019-05-02T02:57:33.440Z,10.30
2019-05-02T03:02:47.548Z,10.30
2019-05-02T03:07:45.335Z,10.30
2019-05-02T03:13:07.973Z,10.30
2019-05-02T03:18:13.154Z,10.10
2019-05-02T03:23:21.692Z,10.10
2019-05-02T03:28:25.235Z,9.90
2019-05-02T03:33:30.552Z,9.80
2019-05-02T03:38:38.413Z,10.20
2019-05-02T03:43:44.079Z,10.10
2019-05-02T03:48:49.510Z,10.00
2019-05-02T03:54:05.661Z,9.70
2019-05-02T03:59:01.430Z,10.40
2019-05-02T04:04:06.498Z,9.80
2019-05-02T04:09:32.073Z,9.90
2019-05-02T04:14:38.983Z,10.20
2019-05-02T04:19:42.901Z,9.80
2019-05-02T04:24:54.431Z,10.00
2019-05-02T04:29:54.758Z,10.00
2019-05-02T04:34:59.985Z,10.20
2019-05-02T04:40:09.069Z,10.00
2019-05-02T04:45:25.140Z,9.90
2019-05-02T04:50:24.950Z,9.70
2019-05-02T04:55:30.337Z,9.70
2019-05-02T05:00:33.320Z,9.70
2019-05-02T05:05:40.380Z,9.70
2019-05-02T05:10:45.172Z,9.80
2019-05-02T05:15:52.015Z,9.80
2019-05-02T05:20:57.803Z,9.90
2019-05-02T05:26:04.641Z,10.00
2019-05-02T05:31:09.610Z,10.30
2019-05-02T05:36:14.916Z,10.30
2019-05-02T05:41:22.897Z,10.20
2019-05-02T05:46:27.992Z,10.10
2019-05-02T05:51:34.118Z,10.60
2019-05-02T05:56:42.877Z,10.70
2019-05-02T06:01:48.342Z,10.80
2019-05-02T06:06:54.030Z,10.60
2019-05-02T06:12:00.088Z,10.60
2019-05-02T06:17:05.170Z,10.80
2019-05-02T06:22:10.550Z,10.90
2019-05-02T06:27:15.774Z,10.70
2019-05-02T06:32:21.160Z,10.70
2019-05-02T06:37:26.042Z,10.80
2019-05-02T06:42:32.684Z,10.70
2019-05-02T06:47:41.489Z,11.10
2019-05-02T06:52:44.886Z,11.20
2019-05-02T06:57:51.680Z,11.20
2019-05-02T07:02:56.909Z,11.20
2019-05-02T07:08:06.700Z,11.30
2019-05-02T07:13:13.172Z,11.50
2019-05-02T07:18:17.944Z,11.30
2019-05-02T07:23:22.992Z,11.60
2019-05-02T07:28:28.012Z,11.50
2019-05-02T07:33:37.484Z,11.60
2019-05-02T07:43:52.013Z,11.80
2019-05-02T07:48:56.634Z,11.60
2019-05-02T07:54:03.334Z,11.50
2019-05-02T07:59:08.282Z,11.70
2019-05-02T08:04:13.604Z,11.60
2019-05-02T08:09:18.929Z,12.00
2019-05-02T08:14:23.816Z,12.00
2019-05-02T08:19:28.789Z,12.20
2019-05-02T08:24:37.990Z,12.30
2019-05-02T08:29:40.734Z,12.70
2019-05-02T08:34:46.028Z,12.50
2019-05-02T08:39:52.770Z,12.30
2019-05-02T08:45:01.017Z,12.60
2019-05-02T08:50:07.742Z,12.70
2019-05-02T08:55:12.891Z,13.10
2019-05-02T09:00:17.902Z,13.20
2019-05-02T09:05:22.888Z,13.50
2019-05-02T09:10:27.877Z,14.10
2019-05-02T09:15:35.291Z,14.30
2019-05-02T09:20:42.347Z,14.20
2019-05-02T09:25:47.669Z,15.20
2019-05-02T09:30:57.445Z,14.60
2019-05-02T09:36:02.405Z,15.40
2019-05-02T09:41:18.752Z,15.90
2019-05-02T09:46:16.630Z,15.10
2019-05-02T09:51:22.110Z,15.60
2019-05-02T09:56:27.461Z,16.50
2019-05-02T10:01:36.349Z,16.70
2019-05-02T10:06:42.948Z,15.90
2019-05-02T10:11:48.344Z,16.80
2019-05-02T10:16:57.602Z,15.90
2019-05-02T10:22:01.925Z,17.20
2019-05-02T10:27:08.660Z,17.20
2019-05-02T10:32:16.652Z,17.90
2019-05-02T10:37:21.805Z,17.00
2019-05-02T10:42:27.017Z,17.90
2019-05-02T10:47:32.811Z,16.90
2019-05-02T10:52:39.091Z,17.20
2019-05-02T10:57:44.008Z,16.90
2019-05-02T11:03:06.789Z,17.60
2019-05-02T11:08:12.100Z,17.20
2019-05-02T11:13:35.944Z,17.20
2019-05-02T11:19:09.389Z,17.30
2019-05-02T11:24:14.681Z,17.30
2019-05-02T11:29:22.285Z,17.70
2019-05-02T11:34:27.505Z,17.00
2019-05-02T11:39:42.897Z,17.60
2019-05-02T11:44:41.836Z,17.40
2019-05-02T11:49:53.924Z,18.80
2019-05-02T11:54:53.618Z,18.40
2019-05-02T11:59:59.445Z,17.80
2019-05-02T12:05:06.266Z,17.90
2019-05-02T12:10:12.587Z,17.90
2019-05-02T12:15:18.252Z,17.80
2019-05-02T12:20:23.695Z,18.50
2019-05-02T12:25:28.984Z,18.70
2019-05-02T12:30:37.656Z,18.30
2019-05-02T12:35:43.205Z,18.30
2019-05-02T12:40:48.791Z,18.20
2019-05-02T12:45:53.838Z,19.00
2019-05-02T12:50:58.807Z,18.60
2019-05-02T12:56:03.733Z,18.30
2019-05-02T13:01:09.069Z,18.10
2019-05-02T13:06:13.990Z,18.20
2019-05-02T13:11:58.622Z,18.70
2019-05-02T13:17:05.677Z,18.30
2019-05-02T13:22:35.504Z,17.90
2019-05-02T13:27:44.335Z,17.60
2019-05-02T13:32:53.691Z,17.10
2019-05-02T13:38:02.879Z,16.90
2019-05-02T13:43:08.236Z,17.00
2019-05-02T13:48:13.306Z,17.80
2019-05-02T13:53:18.665Z,17.20
2019-05-02T13:58:29.062Z,17.30
2019-05-02T14:03:32.498Z,16.90
2019-05-02T14:09:03.050Z,16.90
2019-05-02T14:14:08.479Z,17.00
2019-05-02T14:19:13.752Z,18.70
2019-05-02T14:24:22.537Z,17.20
2019-05-02T14:29:27.440Z,17.30
2019-05-02T14:40:11.653Z,17.40
2019-05-02T14:45:27.462Z,16.40
2019-05-02T14:50:26.475Z,16.10
2019-05-02T14:55:33.214Z,16.00
2019-05-02T15:00:45.795Z,14.90
2019-05-02T15:05:47.921Z,15.10
2019-05-02T15:10:56.466Z,14.40
2019-05-02T15:16:02.350Z,14.50
2019-05-02T15:21:12.209Z,14.10
2019-05-02T15:26:14.359Z,13.90
2019-05-02T15:31:28.542Z,14.00
2019-05-02T15:36:41.304Z,13.90
2019-05-02T15:41:46.778Z,14.10
2019-05-02T15:46:52.422Z,13.60
2019-05-02T15:51:57.838Z,13.50
2019-05-02T15:57:05.543Z,13.50
2019-05-02T16:02:17.559Z,13.40
2019-05-02T16:07:22.375Z,13.50
2019-05-02T16:12:32.178Z,13.60
2019-05-02T16:17:34.742Z,13.50
2019-05-02T16:22:52.473Z,13.60
2019-05-02T16:28:04.597Z,13.80
2019-05-02T16:33:17.512Z,13.30
2019-05-02T16:38:18.958Z,13.30
2019-05-02T16:43:25.766Z,13.40
2019-05-02T16:48:37.479Z,13.40
2019-05-02T16:53:38.215Z,13.20
2019-05-02T16:58:47.048Z,13.10
2019-05-02T17:04:17.841Z,13.00
2019-05-02T17:09:38.807Z,13.30
2019-05-02T17:15:07.511Z,13.40
2019-05-02T17:20:16.253Z,13.30
2019-05-02T17:25:19.554Z,13.30
2019-05-02T17:30:25.170Z,13.00
2019-05-02T17:35:32.565Z,13.20
2019-05-02T17:40:38.629Z,13.10
2019-05-02T17:45:44.233Z,13.00
2019-05-02T17:51:18.273Z,13.10
2019-05-02T17:56:25.089Z,12.90
2019-05-02T18:01:38.876Z,13.00
2019-05-02T18:06:46.931Z,13.40
2019-05-02T18:11:53.378Z,13.40
2019-05-02T18:16:59.069Z,13.30
2019-05-02T18:22:08.286Z,13.10
2019-05-02T18:27:12.854Z,13.20
2019-05-02T18:32:24.455Z,13.10
2019-05-02T18:37:25.403Z,13.10
2019-05-02T18:42:31.766Z,13.20
2019-05-02T18:47:37.326Z,13.20
2019-05-02T18:52:43.236Z,13.10
2019-05-02T18:57:52.243Z,12.90
2019-05-02T19:02:57.370Z,13.00
2019-05-02T19:08:02.907Z,13.10
2019-05-02T19:13:08.299Z,12.90
2019-05-02T19:18:18.030Z,12.80
2019-05-02T19:23:22.499Z,12.90
2019-05-02T19:28:36.762Z,13.00
2019-05-02T19:33:42.599Z,12.90
2019-05-02T19:38:47.043Z,12.80
2019-05-02T19:43:53.390Z,12.60
2019-05-02T19:48:58.684Z,12.80
2019-05-02T19:54:06.950Z,12.60
2019-05-02T19:59:12.018Z,12.50
2019-05-02T20:04:17.511Z,12.60
2019-05-02T20:09:22.709Z,12.40
2019-05-02T20:14:28.041Z,12.30
2019-05-02T20:19:35.847Z,12.50
2019-05-02T20:24:55.312Z,12.30
2019-05-02T20:29:59.346Z,12.30
2019-05-02T20:35:04.562Z,12.20
2019-05-02T20:40:23.999Z,11.30
2019-05-02T20:45:32.145Z,12.10
2019-05-02T20:50:37.242Z,12.00
2019-05-02T20:55:42.549Z,11.90
2019-05-02T21:00:47.779Z,11.90
2019-05-02T21:06:06.417Z,11.60
2019-05-02T21:11:12.479Z,11.00
2019-05-02T21:16:17.635Z,10.80
2019-05-02T21:21:26.134Z,10.80
2019-05-02T21:26:32.908Z,11.10
2019-05-02T21:31:38.362Z,11.10
2019-05-02T21:36:43.723Z,10.80
2019-05-02T21:41:48.952Z,10.60
2019-05-02T21:46:53.996Z,10.70
2019-05-02T21:52:18.315Z,10.80
2019-05-02T21:57:23.610Z,10.70
2019-05-02T22:02:29.246Z,10.80
2019-05-02T22:07:34.921Z,10.80
2019-05-02T22:12:40.014Z,10.80
2019-05-02T22:17:44.938Z,10.60
2019-05-02T22:22:51.941Z,10.60
2019-05-02T22:27:57.859Z,10.50
2019-05-02T22:33:02.930Z,10.50
2019-05-02T22:38:31.797Z,10.50
2019-05-02T22:43:37.026Z,10.50
2019-05-02T22:48:42.331Z,10.60
2019-05-02T22:53:47.489Z,10.60
2019-05-02T22:58:53.106Z,10.50
2019-05-02T23:03:58.368Z,10.40
2019-05-02T23:09:06.552Z,10.50
2019-05-02T23:14:11.761Z,10.40
2019-05-02T23:19:17.023Z,10.40
2019-05-02T23:24:39.163Z,10.40
2019-05-02T23:29:42.677Z,10.40
2019-05-02T23:34:47.913Z,10.30
2019-05-02T23:39:52.835Z,10.50
2019-05-02T23:44:58.118Z,10.50
2019-05-02T23:50:03.308Z,10.30
2019-05-02T23:55:09.060Z,10.20
